sensor_id;sensor_type;location;lat;lon;timestamp;temperature;humidity
10459;DHT22;5277;48.722;8.736;2024-03-17T00:01:02;9.00;99.90
10459;DHT22;5277;48.722;8.736;2024-03-17T00:03:28;9.10;99.90
10459;DHT22;5277;48.722;8.736;2024-03-17T00:05:58;9.00;99.90
10459;DHT22;5277;48.722;8.736;2024-03-17T00:08:24;9.00;99.90
10459;DHT22;5277;48.722;8.736;2024-03-17T00:10:53;8.90;99.90
10459;DHT22;5277;48.722;8.736;2024-03-17T00:13:20;9.00;99.90
10459;DHT22;5277;48.722;8.736;2024-03-17T00:15:47;9.00;99.90
10459;DHT22;5277;48.722;8.736;2024-03-17T00:18:13;8.90;99.90
10459;DHT22;5277;48.722;8.736;2024-03-17T00:20:39;8.90;99.90
10459;DHT22;5277;48.722;8.736;2024-03-17T00:23:05;8.90;99.90
10459;DHT22;5277;48.722;8.736;2024-03-17T00:25:35;8.90;99.90
10459;DHT22;5277;48.722;8.736;2024-03-17T00:28:01;8.90;99.90
10459;DHT22;5277;48.722;8.736;2024-03-17T00:30:27;8.80;99.90
10459;DHT22;5277;48.722;8.736;2024-03-17T00:32:53;8.80;99.90
10459;DHT22;5277;48.722;8.736;2024-03-17T00:35:19;8.80;99.90
10459;DHT22;5277;48.722;8.736;2024-03-17T00:37:50;8.70;99.90
10459;DHT22;5277;48.722;8.736;2024-03-17T00:40:18;8.70;99.90
10459;DHT22;5277;48.722;8.736;2024-03-17T00:42:44;8.70;99.90
10459;DHT22;5277;48.722;8.736;2024-03-17T00:45:12;8.70;99.90
10459;DHT22;5277;48.722;8.736;2024-03-17T00:47:38;8.70;99.90
10459;DHT22;5277;48.722;8.736;2024-03-17T00:50:05;8.70;99.90
10459;DHT22;5277;48.722;8.736;2024-03-17T00:52:32;8.60;99.90
10459;DHT22;5277;48.722;8.736;2024-03-17T00:54:58;8.60;99.90
10459;DHT22;5277;48.722;8.736;2024-03-17T00:57:24;8.60;99.90
10459;DHT22;5277;48.722;8.736;2024-03-17T00:59:50;8.60;99.90
10459;DHT22;5277;48.722;8.736;2024-03-17T01:02:16;8.60;99.90
10459;DHT22;5277;48.722;8.736;2024-03-17T01:04:42;8.60;99.90
10459;DHT22;5277;48.722;8.736;2024-03-17T01:07:07;8.70;99.90
10459;DHT22;5277;48.722;8.736;2024-03-17T01:09:33;8.60;99.90
10459;DHT22;5277;48.722;8.736;2024-03-17T01:11:59;8.60;99.90
10459;DHT22;5277;48.722;8.736;2024-03-17T01:14:25;8.50;99.90
10459;DHT22;5277;48.722;8.736;2024-03-17T01:16:51;8.50;99.90
10459;DHT22;5277;48.722;8.736;2024-03-17T01:19:16;8.50;99.90
10459;DHT22;5277;48.722;8.736;2024-03-17T01:21:42;8.50;99.90
10459;DHT22;5277;48.722;8.736;2024-03-17T01:24:08;8.50;99.90
10459;DHT22;5277;48.722;8.736;2024-03-17T01:26:33;8.50;99.90
10459;DHT22;5277;48.722;8.736;2024-03-17T01:28:59;8.40;99.90
10459;DHT22;5277;48.722;8.736;2024-03-17T01:31:25;8.40;99.90
10459;DHT22;5277;48.722;8.736;2024-03-17T01:33:50;8.30;99.90
10459;DHT22;5277;48.722;8.736;2024-03-17T01:36:16;8.30;99.90
10459;DHT22;5277;48.722;8.736;2024-03-17T01:38:41;8.30;99.90
10459;DHT22;5277;48.722;8.736;2024-03-17T01:41:07;8.30;99.90
10459;DHT22;5277;48.722;8.736;2024-03-17T01:43:33;8.30;99.90
10459;DHT22;5277;48.722;8.736;2024-03-17T01:45:59;8.20;99.90
10459;DHT22;5277;48.722;8.736;2024-03-17T01:48:25;8.20;99.90
10459;DHT22;5277;48.722;8.736;2024-03-17T01:50:53;8.20;99.90
10459;DHT22;5277;48.722;8.736;2024-03-17T01:53:20;8.20;99.90
10459;DHT22;5277;48.722;8.736;2024-03-17T01:55:47;8.20;99.90
10459;DHT22;5277;48.722;8.736;2024-03-17T01:58:13;8.10;99.90
10459;DHT22;5277;48.722;8.736;2024-03-17T02:00:39;8.10;99.90
10459;DHT22;5277;48.722;8.736;2024-03-17T02:03:06;8.10;99.90
10459;DHT22;5277;48.722;8.736;2024-03-17T02:05:34;8.20;99.90
10459;DHT22;5277;48.722;8.736;2024-03-17T02:08:00;8.20;99.90
10459;DHT22;5277;48.722;8.736;2024-03-17T02:10:27;8.20;99.90
10459;DHT22;5277;48.722;8.736;2024-03-17T02:12:53;8.20;99.90
10459;DHT22;5277;48.722;8.736;2024-03-17T02:15:18;8.20;99.90
10459;DHT22;5277;48.722;8.736;2024-03-17T02:17:44;8.20;99.90
10459;DHT22;5277;48.722;8.736;2024-03-17T02:20:10;8.20;99.90
10459;DHT22;5277;48.722;8.736;2024-03-17T02:22:37;8.20;99.90
10459;DHT22;5277;48.722;8.736;2024-03-17T02:25:03;8.20;99.90
10459;DHT22;5277;48.722;8.736;2024-03-17T02:27:29;8.20;99.90
10459;DHT22;5277;48.722;8.736;2024-03-17T02:29:55;8.10;99.90
10459;DHT22;5277;48.722;8.736;2024-03-17T02:32:21;8.20;99.90
10459;DHT22;5277;48.722;8.736;2024-03-17T02:34:48;8.10;99.90
10459;DHT22;5277;48.722;8.736;2024-03-17T02:37:14;8.00;99.90
10459;DHT22;5277;48.722;8.736;2024-03-17T02:39:40;8.10;99.90
10459;DHT22;5277;48.722;8.736;2024-03-17T02:42:07;8.10;99.90
10459;DHT22;5277;48.722;8.736;2024-03-17T02:44:35;8.10;99.90
10459;DHT22;5277;48.722;8.736;2024-03-17T02:47:02;8.10;99.90
10459;DHT22;5277;48.722;8.736;2024-03-17T02:49:29;8.10;99.90
10459;DHT22;5277;48.722;8.736;2024-03-17T02:52:02;8.10;99.90
10459;DHT22;5277;48.722;8.736;2024-03-17T02:54:28;8.10;99.90
10459;DHT22;5277;48.722;8.736;2024-03-17T02:56:54;8.10;99.90
10459;DHT22;5277;48.722;8.736;2024-03-17T02:59:19;8.10;99.90
10459;DHT22;5277;48.722;8.736;2024-03-17T03:01:45;8.10;99.90
10459;DHT22;5277;48.722;8.736;2024-03-17T03:04:11;8.10;99.90
10459;DHT22;5277;48.722;8.736;2024-03-17T03:06:36;8.10;99.90
10459;DHT22;5277;48.722;8.736;2024-03-17T03:09:02;8.10;99.90
10459;DHT22;5277;48.722;8.736;2024-03-17T03:11:30;8.10;99.90
10459;DHT22;5277;48.722;8.736;2024-03-17T03:13:56;8.10;99.90
10459;DHT22;5277;48.722;8.736;2024-03-17T03:16:22;8.10;99.90
10459;DHT22;5277;48.722;8.736;2024-03-17T03:18:47;8.10;99.90
10459;DHT22;5277;48.722;8.736;2024-03-17T03:21:13;8.10;99.90
10459;DHT22;5277;48.722;8.736;2024-03-17T03:23:39;8.00;99.90
10459;DHT22;5277;48.722;8.736;2024-03-17T03:26:04;8.00;99.90
10459;DHT22;5277;48.722;8.736;2024-03-17T03:28:31;8.00;99.90
10459;DHT22;5277;48.722;8.736;2024-03-17T03:33:33;8.00;99.90
10459;DHT22;5277;48.722;8.736;2024-03-17T03:35:58;7.90;99.90
10459;DHT22;5277;48.722;8.736;2024-03-17T03:38:24;7.90;99.90
10459;DHT22;5277;48.722;8.736;2024-03-17T03:40:50;7.90;99.90
10459;DHT22;5277;48.722;8.736;2024-03-17T03:43:17;7.90;99.90
10459;DHT22;5277;48.722;8.736;2024-03-17T03:45:43;7.80;99.90
10459;DHT22;5277;48.722;8.736;2024-03-17T03:48:09;7.90;99.90
10459;DHT22;5277;48.722;8.736;2024-03-17T03:50:35;7.90;99.90
10459;DHT22;5277;48.722;8.736;2024-03-17T03:53:00;7.80;99.90
10459;DHT22;5277;48.722;8.736;2024-03-17T03:55:26;7.90;99.90
10459;DHT22;5277;48.722;8.736;2024-03-17T03:57:52;7.80;99.90
10459;DHT22;5277;48.722;8.736;2024-03-17T04:00:21;7.80;99.90
10459;DHT22;5277;48.722;8.736;2024-03-17T04:02:52;7.80;99.90
10459;DHT22;5277;48.722;8.736;2024-03-17T04:05:18;7.80;99.90
10459;DHT22;5277;48.722;8.736;2024-03-17T04:07:45;7.80;99.90
10459;DHT22;5277;48.722;8.736;2024-03-17T04:10:12;7.90;99.90
10459;DHT22;5277;48.722;8.736;2024-03-17T04:12:38;7.90;99.90
10459;DHT22;5277;48.722;8.736;2024-03-17T04:15:04;7.80;99.90
10459;DHT22;5277;48.722;8.736;2024-03-17T04:17:32;7.80;99.90
10459;DHT22;5277;48.722;8.736;2024-03-17T04:19:58;7.80;99.90
10459;DHT22;5277;48.722;8.736;2024-03-17T04:22:23;7.80;99.90
10459;DHT22;5277;48.722;8.736;2024-03-17T04:24:50;7.90;99.90
10459;DHT22;5277;48.722;8.736;2024-03-17T04:27:20;7.90;99.90
10459;DHT22;5277;48.722;8.736;2024-03-17T04:29:53;7.80;99.90
10459;DHT22;5277;48.722;8.736;2024-03-17T04:32:22;7.80;99.90
10459;DHT22;5277;48.722;8.736;2024-03-17T04:34:48;7.80;99.90
10459;DHT22;5277;48.722;8.736;2024-03-17T04:37:14;7.80;99.90
10459;DHT22;5277;48.722;8.736;2024-03-17T04:39:40;7.70;99.90
10459;DHT22;5277;48.722;8.736;2024-03-17T04:42:08;7.70;99.90
10459;DHT22;5277;48.722;8.736;2024-03-17T04:44:34;7.70;99.90
10459;DHT22;5277;48.722;8.736;2024-03-17T04:46:59;7.70;99.90
10459;DHT22;5277;48.722;8.736;2024-03-17T04:49:25;7.70;99.90
10459;DHT22;5277;48.722;8.736;2024-03-17T04:51:51;7.60;99.90
10459;DHT22;5277;48.722;8.736;2024-03-17T04:54:16;7.70;99.90
10459;DHT22;5277;48.722;8.736;2024-03-17T04:56:42;7.60;99.90
10459;DHT22;5277;48.722;8.736;2024-03-17T04:59:07;7.60;99.90
10459;DHT22;5277;48.722;8.736;2024-03-17T05:01:33;7.60;99.90
10459;DHT22;5277;48.722;8.736;2024-03-17T05:04:02;7.60;99.90
10459;DHT22;5277;48.722;8.736;2024-03-17T05:06:28;7.60;99.90
10459;DHT22;5277;48.722;8.736;2024-03-17T05:08:54;7.60;99.90
10459;DHT22;5277;48.722;8.736;2024-03-17T05:11:20;7.60;99.90
10459;DHT22;5277;48.722;8.736;2024-03-17T05:13:45;7.60;99.90
10459;DHT22;5277;48.722;8.736;2024-03-17T05:16:11;7.50;99.90
10459;DHT22;5277;48.722;8.736;2024-03-17T05:18:37;7.50;99.90
10459;DHT22;5277;48.722;8.736;2024-03-17T05:21:08;7.60;99.90
10459;DHT22;5277;48.722;8.736;2024-03-17T05:23:35;7.50;99.90
10459;DHT22;5277;48.722;8.736;2024-03-17T05:26:01;7.50;99.90
10459;DHT22;5277;48.722;8.736;2024-03-17T05:28:28;7.60;99.90
10459;DHT22;5277;48.722;8.736;2024-03-17T05:30:54;7.60;99.90
10459;DHT22;5277;48.722;8.736;2024-03-17T05:33:21;7.60;99.90
10459;DHT22;5277;48.722;8.736;2024-03-17T05:35:56;7.60;99.90
10459;DHT22;5277;48.722;8.736;2024-03-17T05:38:23;7.60;99.90
10459;DHT22;5277;48.722;8.736;2024-03-17T05:40:57;7.60;99.90
10459;DHT22;5277;48.722;8.736;2024-03-17T05:43:23;7.60;99.90
10459;DHT22;5277;48.722;8.736;2024-03-17T05:45:51;7.50;99.90
10459;DHT22;5277;48.722;8.736;2024-03-17T05:48:17;7.50;99.90
10459;DHT22;5277;48.722;8.736;2024-03-17T05:50:42;7.50;99.90
10459;DHT22;5277;48.722;8.736;2024-03-17T05:53:08;7.50;99.90
10459;DHT22;5277;48.722;8.736;2024-03-17T05:55:37;7.50;99.90
10459;DHT22;5277;48.722;8.736;2024-03-17T05:58:03;7.50;99.90
10459;DHT22;5277;48.722;8.736;2024-03-17T06:00:28;7.40;99.90
10459;DHT22;5277;48.722;8.736;2024-03-17T06:02:56;7.30;99.90
10459;DHT22;5277;48.722;8.736;2024-03-17T06:05:21;7.30;99.90
10459;DHT22;5277;48.722;8.736;2024-03-17T06:07:47;7.30;99.90
10459;DHT22;5277;48.722;8.736;2024-03-17T06:10:13;7.30;99.90
10459;DHT22;5277;48.722;8.736;2024-03-17T06:12:38;7.30;99.90
10459;DHT22;5277;48.722;8.736;2024-03-17T06:15:04;7.30;99.90
10459;DHT22;5277;48.722;8.736;2024-03-17T06:17:30;7.30;99.90
10459;DHT22;5277;48.722;8.736;2024-03-17T06:19:56;7.30;99.90
10459;DHT22;5277;48.722;8.736;2024-03-17T06:22:22;7.30;99.90
10459;DHT22;5277;48.722;8.736;2024-03-17T06:24:49;7.30;99.90
10459;DHT22;5277;48.722;8.736;2024-03-17T06:27:15;7.20;99.90
10459;DHT22;5277;48.722;8.736;2024-03-17T06:29:41;7.30;99.90
10459;DHT22;5277;48.722;8.736;2024-03-17T06:32:11;7.30;99.90
10459;DHT22;5277;48.722;8.736;2024-03-17T06:34:37;7.30;99.90
10459;DHT22;5277;48.722;8.736;2024-03-17T06:37:02;7.30;99.90
10459;DHT22;5277;48.722;8.736;2024-03-17T06:39:28;7.40;99.90
10459;DHT22;5277;48.722;8.736;2024-03-17T06:41:54;7.40;99.90
10459;DHT22;5277;48.722;8.736;2024-03-17T06:44:19;7.40;99.90
10459;DHT22;5277;48.722;8.736;2024-03-17T06:46:47;7.40;99.90
10459;DHT22;5277;48.722;8.736;2024-03-17T06:49:13;7.40;99.90
10459;DHT22;5277;48.722;8.736;2024-03-17T06:51:38;7.40;99.90
10459;DHT22;5277;48.722;8.736;2024-03-17T06:54:04;7.30;99.90
10459;DHT22;5277;48.722;8.736;2024-03-17T06:56:30;7.40;99.90
10459;DHT22;5277;48.722;8.736;2024-03-17T06:58:58;7.30;99.90
10459;DHT22;5277;48.722;8.736;2024-03-17T07:01:23;7.40;99.90
10459;DHT22;5277;48.722;8.736;2024-03-17T07:03:49;7.30;99.90
10459;DHT22;5277;48.722;8.736;2024-03-17T07:06:14;7.40;99.90
10459;DHT22;5277;48.722;8.736;2024-03-17T07:08:40;7.40;99.90
10459;DHT22;5277;48.722;8.736;2024-03-17T07:11:07;7.50;99.90
10459;DHT22;5277;48.722;8.736;2024-03-17T07:13:35;7.40;99.90
10459;DHT22;5277;48.722;8.736;2024-03-17T07:16:02;7.30;99.90
10459;DHT22;5277;48.722;8.736;2024-03-17T07:18:28;7.40;99.90
10459;DHT22;5277;48.722;8.736;2024-03-17T07:21:02;7.40;99.90
10459;DHT22;5277;48.722;8.736;2024-03-17T07:23:30;7.40;99.90
10459;DHT22;5277;48.722;8.736;2024-03-17T07:25:57;7.50;99.90
10459;DHT22;5277;48.722;8.736;2024-03-17T07:28:23;7.50;99.90
10459;DHT22;5277;48.722;8.736;2024-03-17T07:30:56;7.50;99.90
10459;DHT22;5277;48.722;8.736;2024-03-17T07:33:22;7.60;99.90
10459;DHT22;5277;48.722;8.736;2024-03-17T07:35:53;7.60;99.90
10459;DHT22;5277;48.722;8.736;2024-03-17T07:38:20;7.60;99.90
10459;DHT22;5277;48.722;8.736;2024-03-17T07:43:25;7.60;99.90
10459;DHT22;5277;48.722;8.736;2024-03-17T07:46:17;7.70;99.90
10459;DHT22;5277;48.722;8.736;2024-03-17T07:48:44;7.70;99.90
10459;DHT22;5277;48.722;8.736;2024-03-17T07:51:10;7.90;99.90
10459;DHT22;5277;48.722;8.736;2024-03-17T07:53:37;7.90;99.90
10459;DHT22;5277;48.722;8.736;2024-03-17T07:56:05;8.00;99.90
10459;DHT22;5277;48.722;8.736;2024-03-17T07:58:32;8.00;99.90
10459;DHT22;5277;48.722;8.736;2024-03-17T08:01:02;8.10;99.90
10459;DHT22;5277;48.722;8.736;2024-03-17T08:03:36;8.20;99.90
10459;DHT22;5277;48.722;8.736;2024-03-17T08:06:04;8.30;99.90
10459;DHT22;5277;48.722;8.736;2024-03-17T08:08:30;8.30;99.90
10459;DHT22;5277;48.722;8.736;2024-03-17T08:10:56;8.40;99.90
10459;DHT22;5277;48.722;8.736;2024-03-17T08:13:21;8.50;99.90
10459;DHT22;5277;48.722;8.736;2024-03-17T08:15:56;8.60;99.90
10459;DHT22;5277;48.722;8.736;2024-03-17T08:18:22;8.70;99.90
10459;DHT22;5277;48.722;8.736;2024-03-17T08:20:48;8.90;99.90
10459;DHT22;5277;48.722;8.736;2024-03-17T08:23:13;9.00;99.90
10459;DHT22;5277;48.722;8.736;2024-03-17T08:25:39;9.10;99.90
10459;DHT22;5277;48.722;8.736;2024-03-17T08:28:05;9.20;99.90
10459;DHT22;5277;48.722;8.736;2024-03-17T08:30:33;9.30;99.90
10459;DHT22;5277;48.722;8.736;2024-03-17T08:32:58;9.30;99.90
10459;DHT22;5277;48.722;8.736;2024-03-17T08:35:24;9.40;99.90
10459;DHT22;5277;48.722;8.736;2024-03-17T08:37:50;9.60;99.90
10459;DHT22;5277;48.722;8.736;2024-03-17T08:40:17;9.70;99.90
10459;DHT22;5277;48.722;8.736;2024-03-17T08:42:43;9.70;99.90
10459;DHT22;5277;48.722;8.736;2024-03-17T08:45:10;9.90;99.90
10459;DHT22;5277;48.722;8.736;2024-03-17T08:47:36;10.00;99.90
10459;DHT22;5277;48.722;8.736;2024-03-17T08:50:02;10.00;99.90
10459;DHT22;5277;48.722;8.736;2024-03-17T08:52:30;10.10;99.90
10459;DHT22;5277;48.722;8.736;2024-03-17T08:54:57;10.10;99.90
10459;DHT22;5277;48.722;8.736;2024-03-17T08:57:23;10.30;99.90
10459;DHT22;5277;48.722;8.736;2024-03-17T08:59:49;10.40;99.90
10459;DHT22;5277;48.722;8.736;2024-03-17T09:02:14;10.50;99.90
10459;DHT22;5277;48.722;8.736;2024-03-17T09:04:43;10.50;99.90
10459;DHT22;5277;48.722;8.736;2024-03-17T09:07:08;10.50;99.90
10459;DHT22;5277;48.722;8.736;2024-03-17T09:09:34;10.60;99.90
10459;DHT22;5277;48.722;8.736;2024-03-17T09:11:59;10.60;99.90
10459;DHT22;5277;48.722;8.736;2024-03-17T09:14:25;10.70;99.90
10459;DHT22;5277;48.722;8.736;2024-03-17T09:16:51;10.60;99.90
10459;DHT22;5277;48.722;8.736;2024-03-17T09:19:16;10.70;99.90
10459;DHT22;5277;48.722;8.736;2024-03-17T09:21:42;10.90;99.90
10459;DHT22;5277;48.722;8.736;2024-03-17T09:24:08;11.00;99.90
10459;DHT22;5277;48.722;8.736;2024-03-17T09:26:34;11.10;99.90
10459;DHT22;5277;48.722;8.736;2024-03-17T09:29:00;11.20;99.90
10459;DHT22;5277;48.722;8.736;2024-03-17T09:31:26;11.30;99.90
10459;DHT22;5277;48.722;8.736;2024-03-17T09:33:52;11.40;99.90
10459;DHT22;5277;48.722;8.736;2024-03-17T09:36:17;11.40;99.90
10459;DHT22;5277;48.722;8.736;2024-03-17T09:38:44;11.60;99.90
10459;DHT22;5277;48.722;8.736;2024-03-17T09:41:22;11.60;99.90
10459;DHT22;5277;48.722;8.736;2024-03-17T09:43:50;11.70;99.90
10459;DHT22;5277;48.722;8.736;2024-03-17T09:46:19;11.80;99.90
10459;DHT22;5277;48.722;8.736;2024-03-17T09:48:45;11.90;99.90
10459;DHT22;5277;48.722;8.736;2024-03-17T09:51:21;11.90;99.90
10459;DHT22;5277;48.722;8.736;2024-03-17T09:53:48;12.10;99.90
10459;DHT22;5277;48.722;8.736;2024-03-17T09:56:18;12.40;99.90
10459;DHT22;5277;48.722;8.736;2024-03-17T09:58:53;12.80;99.90
10459;DHT22;5277;48.722;8.736;2024-03-17T10:01:19;13.40;99.90
10459;DHT22;5277;48.722;8.736;2024-03-17T10:06:16;15.30;98.40
10459;DHT22;5277;48.722;8.736;2024-03-17T10:08:43;16.20;97.30
10459;DHT22;5277;48.722;8.736;2024-03-17T10:11:09;16.80;95.50
10459;DHT22;5277;48.722;8.736;2024-03-17T10:13:35;17.20;94.80
10459;DHT22;5277;48.722;8.736;2024-03-17T10:16:00;17.50;94.00
10459;DHT22;5277;48.722;8.736;2024-03-17T10:18:26;17.70;93.00
10459;DHT22;5277;48.722;8.736;2024-03-17T10:20:51;17.80;92.90
10459;DHT22;5277;48.722;8.736;2024-03-17T10:23:22;17.90;91.70
10459;DHT22;5277;48.722;8.736;2024-03-17T10:25:47;17.80;90.90
10459;DHT22;5277;48.722;8.736;2024-03-17T10:28:15;17.60;92.10
10459;DHT22;5277;48.722;8.736;2024-03-17T10:30:41;17.40;91.60
10459;DHT22;5277;48.722;8.736;2024-03-17T10:33:22;17.30;91.70
10459;DHT22;5277;48.722;8.736;2024-03-17T10:35:50;17.40;91.00
10459;DHT22;5277;48.722;8.736;2024-03-17T10:38:16;17.30;90.80
10459;DHT22;5277;48.722;8.736;2024-03-17T10:40:43;17.20;91.40
10459;DHT22;5277;48.722;8.736;2024-03-17T10:43:10;17.20;91.10
10459;DHT22;5277;48.722;8.736;2024-03-17T10:45:37;17.20;90.80
10459;DHT22;5277;48.722;8.736;2024-03-17T10:48:08;17.10;90.70
10459;DHT22;5277;48.722;8.736;2024-03-17T10:50:36;17.30;91.20
10459;DHT22;5277;48.722;8.736;2024-03-17T10:53:04;17.50;91.50
10459;DHT22;5277;48.722;8.736;2024-03-17T10:55:46;17.80;89.70
10459;DHT22;5277;48.722;8.736;2024-03-17T10:58:34;17.70;90.00
10459;DHT22;5277;48.722;8.736;2024-03-17T11:01:04;17.80;88.90
10459;DHT22;5277;48.722;8.736;2024-03-17T11:03:33;17.90;89.60
10459;DHT22;5277;48.722;8.736;2024-03-17T11:06:02;18.10;90.40
10459;DHT22;5277;48.722;8.736;2024-03-17T11:08:31;18.10;89.30
10459;DHT22;5277;48.722;8.736;2024-03-17T11:10:58;18.40;89.30
10459;DHT22;5277;48.722;8.736;2024-03-17T11:13:28;18.60;87.50
10459;DHT22;5277;48.722;8.736;2024-03-17T11:15:55;18.60;87.40
10459;DHT22;5277;48.722;8.736;2024-03-17T11:23:33;18.80;86.20
10459;DHT22;5277;48.722;8.736;2024-03-17T11:25:59;18.70;85.10
10459;DHT22;5277;48.722;8.736;2024-03-17T11:31:33;18.60;84.00
10459;DHT22;5277;48.722;8.736;2024-03-17T11:34:03;18.40;83.90
10459;DHT22;5277;48.722;8.736;2024-03-17T11:36:36;18.10;82.20
10459;DHT22;5277;48.722;8.736;2024-03-17T11:41:38;17.60;87.60
10459;DHT22;5277;48.722;8.736;2024-03-17T11:46:40;17.30;86.20
10459;DHT22;5277;48.722;8.736;2024-03-17T11:49:06;17.20;86.70
10459;DHT22;5277;48.722;8.736;2024-03-17T11:51:34;17.00;88.10
10459;DHT22;5277;48.722;8.736;2024-03-17T11:54:00;16.90;88.30
10459;DHT22;5277;48.722;8.736;2024-03-17T11:56:26;16.80;89.20
10459;DHT22;5277;48.722;8.736;2024-03-17T11:59:06;16.70;90.00
10459;DHT22;5277;48.722;8.736;2024-03-17T12:01:34;16.50;90.10
10459;DHT22;5277;48.722;8.736;2024-03-17T12:04:01;16.50;90.00
10459;DHT22;5277;48.722;8.736;2024-03-17T12:06:34;16.40;90.70
10459;DHT22;5277;48.722;8.736;2024-03-17T12:09:19;16.30;90.50
10459;DHT22;5277;48.722;8.736;2024-03-17T12:12:02;16.20;89.00
10459;DHT22;5277;48.722;8.736;2024-03-17T12:14:28;16.20;89.70
10459;DHT22;5277;48.722;8.736;2024-03-17T12:17:04;16.10;90.40
10459;DHT22;5277;48.722;8.736;2024-03-17T12:19:31;16.10;90.50
10459;DHT22;5277;48.722;8.736;2024-03-17T12:21:58;16.20;91.00
10459;DHT22;5277;48.722;8.736;2024-03-17T12:24:29;16.30;90.80
10459;DHT22;5277;48.722;8.736;2024-03-17T12:26:56;16.40;90.40
10459;DHT22;5277;48.722;8.736;2024-03-17T12:29:39;16.50;90.00
10459;DHT22;5277;48.722;8.736;2024-03-17T12:34:37;16.60;89.00
10459;DHT22;5277;48.722;8.736;2024-03-17T12:37:03;16.60;88.70
10459;DHT22;5277;48.722;8.736;2024-03-17T12:39:31;16.60;88.60
10459;DHT22;5277;48.722;8.736;2024-03-17T12:44:33;16.80;86.70
10459;DHT22;5277;48.722;8.736;2024-03-17T12:47:01;16.90;88.60
10459;DHT22;5277;48.722;8.736;2024-03-17T12:49:28;17.00;88.20
10459;DHT22;5277;48.722;8.736;2024-03-17T12:51:54;17.10;87.20
10459;DHT22;5277;48.722;8.736;2024-03-17T12:54:24;17.30;87.70
10459;DHT22;5277;48.722;8.736;2024-03-17T12:57:12;17.20;87.30
10459;DHT22;5277;48.722;8.736;2024-03-17T12:59:55;17.20;84.40
10459;DHT22;5277;48.722;8.736;2024-03-17T13:02:45;17.10;85.70
10459;DHT22;5277;48.722;8.736;2024-03-17T13:05:15;16.90;86.20
10459;DHT22;5277;48.722;8.736;2024-03-17T13:07:46;16.80;86.30
10459;DHT22;5277;48.722;8.736;2024-03-17T13:10:13;16.90;88.00
10459;DHT22;5277;48.722;8.736;2024-03-17T13:12:42;16.80;88.30
10459;DHT22;5277;48.722;8.736;2024-03-17T13:15:12;16.90;88.50
10459;DHT22;5277;48.722;8.736;2024-03-17T13:17:42;16.90;88.60
10459;DHT22;5277;48.722;8.736;2024-03-17T13:20:15;17.00;87.30
10459;DHT22;5277;48.722;8.736;2024-03-17T13:22:42;17.00;88.60
10459;DHT22;5277;48.722;8.736;2024-03-17T13:25:16;17.00;89.30
10459;DHT22;5277;48.722;8.736;2024-03-17T13:27:43;17.00;91.20
10459;DHT22;5277;48.722;8.736;2024-03-17T13:30:10;17.10;90.90
10459;DHT22;5277;48.722;8.736;2024-03-17T13:32:36;17.10;87.80
10459;DHT22;5277;48.722;8.736;2024-03-17T13:35:02;17.20;88.00
10459;DHT22;5277;48.722;8.736;2024-03-17T13:37:28;17.50;87.50
10459;DHT22;5277;48.722;8.736;2024-03-17T13:39:54;17.70;86.60
10459;DHT22;5277;48.722;8.736;2024-03-17T13:42:19;17.80;86.00
10459;DHT22;5277;48.722;8.736;2024-03-17T13:44:46;17.90;86.20
10459;DHT22;5277;48.722;8.736;2024-03-17T13:47:12;18.00;85.20
10459;DHT22;5277;48.722;8.736;2024-03-17T13:49:39;17.80;84.30
10459;DHT22;5277;48.722;8.736;2024-03-17T13:52:05;17.80;85.70
10459;DHT22;5277;48.722;8.736;2024-03-17T13:54:30;17.70;86.10
10459;DHT22;5277;48.722;8.736;2024-03-17T13:56:57;17.50;87.50
10459;DHT22;5277;48.722;8.736;2024-03-17T13:59:24;17.40;88.60
10459;DHT22;5277;48.722;8.736;2024-03-17T14:01:50;17.20;89.40
10459;DHT22;5277;48.722;8.736;2024-03-17T14:04:19;17.10;88.00
10459;DHT22;5277;48.722;8.736;2024-03-17T14:06:45;17.00;90.00
10459;DHT22;5277;48.722;8.736;2024-03-17T14:09:12;16.90;90.60
10459;DHT22;5277;48.722;8.736;2024-03-17T14:11:38;16.90;90.40
10459;DHT22;5277;48.722;8.736;2024-03-17T14:14:05;17.00;89.10
10459;DHT22;5277;48.722;8.736;2024-03-17T14:16:31;17.00;90.50
10459;DHT22;5277;48.722;8.736;2024-03-17T14:19:00;17.00;90.10
10459;DHT22;5277;48.722;8.736;2024-03-17T14:21:27;17.00;89.70
10459;DHT22;5277;48.722;8.736;2024-03-17T14:23:53;17.10;88.30
10459;DHT22;5277;48.722;8.736;2024-03-17T14:26:19;17.10;88.50
10459;DHT22;5277;48.722;8.736;2024-03-17T14:28:49;17.10;90.20
10459;DHT22;5277;48.722;8.736;2024-03-17T14:31:19;17.00;90.50
10459;DHT22;5277;48.722;8.736;2024-03-17T14:33:45;17.00;90.70
10459;DHT22;5277;48.722;8.736;2024-03-17T14:36:11;16.90;91.30
10459;DHT22;5277;48.722;8.736;2024-03-17T14:38:36;16.90;91.30
10459;DHT22;5277;48.722;8.736;2024-03-17T14:41:02;16.80;91.60
10459;DHT22;5277;48.722;8.736;2024-03-17T14:43:30;16.70;91.40
10459;DHT22;5277;48.722;8.736;2024-03-17T14:45:56;16.60;91.10
10459;DHT22;5277;48.722;8.736;2024-03-17T14:48:22;16.60;91.90
10459;DHT22;5277;48.722;8.736;2024-03-17T14:50:48;16.60;92.30
10459;DHT22;5277;48.722;8.736;2024-03-17T14:53:14;16.40;92.10
10459;DHT22;5277;48.722;8.736;2024-03-17T14:55:40;16.40;92.40
10459;DHT22;5277;48.722;8.736;2024-03-17T14:58:08;16.40;91.30
10459;DHT22;5277;48.722;8.736;2024-03-17T15:00:35;16.30;92.50
10459;DHT22;5277;48.722;8.736;2024-03-17T15:03:01;16.30;92.30
10459;DHT22;5277;48.722;8.736;2024-03-17T15:05:27;16.30;92.10
10459;DHT22;5277;48.722;8.736;2024-03-17T15:07:52;16.20;92.60
10459;DHT22;5277;48.722;8.736;2024-03-17T15:10:18;16.20;92.90
10459;DHT22;5277;48.722;8.736;2024-03-17T15:12:50;16.20;93.20
10459;DHT22;5277;48.722;8.736;2024-03-17T15:15:16;16.10;92.80
10459;DHT22;5277;48.722;8.736;2024-03-17T15:17:42;16.10;93.20
10459;DHT22;5277;48.722;8.736;2024-03-17T15:20:10;16.10;93.40
10459;DHT22;5277;48.722;8.736;2024-03-17T15:22:47;16.00;93.40
10459;DHT22;5277;48.722;8.736;2024-03-17T15:25:15;15.90;93.10
10459;DHT22;5277;48.722;8.736;2024-03-17T15:27:44;15.80;93.10
10459;DHT22;5277;48.722;8.736;2024-03-17T15:30:14;15.70;93.50
10459;DHT22;5277;48.722;8.736;2024-03-17T15:32:43;15.60;94.30
10459;DHT22;5277;48.722;8.736;2024-03-17T15:35:10;15.60;94.10
10459;DHT22;5277;48.722;8.736;2024-03-17T15:37:36;15.50;95.00
10459;DHT22;5277;48.722;8.736;2024-03-17T15:40:02;15.40;95.70
10459;DHT22;5277;48.722;8.736;2024-03-17T15:42:28;15.30;95.40
10459;DHT22;5277;48.722;8.736;2024-03-17T15:44:54;15.30;94.90
10459;DHT22;5277;48.722;8.736;2024-03-17T15:47:19;15.30;95.30
10459;DHT22;5277;48.722;8.736;2024-03-17T15:49:46;15.30;95.60
10459;DHT22;5277;48.722;8.736;2024-03-17T15:52:11;15.20;95.30
10459;DHT22;5277;48.722;8.736;2024-03-17T15:54:37;15.10;95.20
10459;DHT22;5277;48.722;8.736;2024-03-17T15:57:03;15.10;95.80
10459;DHT22;5277;48.722;8.736;2024-03-17T15:59:29;15.10;95.60
10459;DHT22;5277;48.722;8.736;2024-03-17T16:01:55;15.10;95.00
10459;DHT22;5277;48.722;8.736;2024-03-17T16:04:22;15.10;95.60
10459;DHT22;5277;48.722;8.736;2024-03-17T16:06:51;15.10;95.90
10459;DHT22;5277;48.722;8.736;2024-03-17T16:09:17;15.10;95.20
10459;DHT22;5277;48.722;8.736;2024-03-17T16:11:43;15.00;95.20
10459;DHT22;5277;48.722;8.736;2024-03-17T16:14:12;15.00;95.60
10459;DHT22;5277;48.722;8.736;2024-03-17T16:16:40;14.90;95.80
10459;DHT22;5277;48.722;8.736;2024-03-17T16:19:06;14.80;95.30
10459;DHT22;5277;48.722;8.736;2024-03-17T16:21:33;14.90;96.10